KATL/ATL METAR and TAF weather

Enter ICAO airport designator
Station Type Date Time Source
KATL METAR 2021/10/20 06:52 UTC NOAA

KATL 200652Z 00000KT 10SM SCT200 SCT250 14/08 A3023 RMK AO2 SLP233 T01440083


Station Type Date Time Source
KATL Decoded METAR 2021/10/20 06:52 UTC NOAA

HARTSFIELD-JACKSON ATLANTA, GA, United States (KATL) 33-39N 84-26W
Oct 20, 2021 - 02:52 AM EDT / 2021.10.20 0652 UTC
Wind: Calm:0
Visibility: 10 mile(s):0
Sky conditions: partly cloudy
Temperature: 57.9 F (14.4 C)
Dew Point: 46.9 F (8.3 C)
Relative Humidity: 66%
Pressure (altimeter): 30.23 in. Hg (1023 hPa)
ob: KATL 200652Z 00000KT 10SM SCT200 SCT250 14/08 A3023 RMK AO2 SLP233 T01440083
cycle: 7

Station Type Date Time Source
KATL TAF 2021/10/20 08:33 UTC NOAA

TAF
AMD KATL 200731Z 2008/2112 20003KT P6SM SCT200 BKN250
FM201500 23005KT P6SM SCT200
FM210000 19003KT P6SM FEW200
FM211000 20004KT P6SM SCT070 BKN100

Example: see airport list